Terminal Aerodrome Forecast
Issued by NWS

Home | Current Version | Previous Version | Text Only | Print | Product List | Glossary On
Versions: 1 2 3 4 5 6 7 8 9 10 11 12 13
000
FTUS45 KRIW 241100
TAFBPI
TAF
KBPI 241131Z 2412/2512 34010KT P6SM SCT050
     FM241500 20007KT P6SM SCT050 BKN070
     FM241800 29022G32KT P6SM VCSH SCT024 BKN040
     FM250100 33012G22KT P6SM SCT030 BKN070
     FM250900 34011KT P6SM BKN070=

USA.gov is the U.S. government's official web portal to all federal, state and local government web resources and services.